Time;durP1;ratioP1;P1;durP2;ratioP2;P2;SDS_P1;SDS_P2;PMS_P1;PMS_P2;Temp;Humidity;BMP_temperature;BMP_pressure;BME280_temperature;BME280_humidity;BME280_pressure;Samples;Min_cycle;Max_cycle;Signal;HPM_P1;HPM_P2
2021/04/23 00:01:12;;;;;;;14.02;6.00;;;4.30;90.20;;;;;;4913983;29;20393;-65
2021/04/23 00:03:45;;;;;;;15.27;5.70;;;4.30;90.30;;;;;;4913468;29;20034;-65
2021/04/23 00:06:39;;;;;;;11.43;5.80;;;4.20;90.60;;;;;;4914753;29;20032;-64
2021/04/23 00:09:10;;;;;;;9.43;5.70;;;4.20;90.40;;;;;;4913564;29;20051;-66
2021/04/23 00:11:41;;;;;;;14.32;6.47;;;4.20;90.50;;;;;;4914668;29;20483;-66
2021/04/23 00:14:08;;;;;;;13.73;6.10;;;4.10;90.50;;;;;;4913107;29;20031;-64
2021/04/23 00:16:35;;;;;;;9.77;5.47;;;4.10;90.60;;;;;;4913979;29;20042;-66
2021/04/23 00:19:04;;;;;;;14.60;5.93;;;4.10;90.70;;;;;;4914637;29;20016;-64
2021/04/23 00:21:29;;;;;;;17.83;6.05;;;4.00;90.70;;;;;;4914516;29;20029;-67
2021/04/23 00:23:56;;;;;;;12.65;5.78;;;4.00;90.70;;;;;;4913575;29;20387;-65
2021/04/23 00:26:21;;;;;;;11.73;5.43;;;4.00;90.80;;;;;;4914629;29;20051;-65
2021/04/23 00:28:47;;;;;;;15.00;6.53;;;3.90;90.80;;;;;;4913509;29;20029;-67
2021/04/23 00:31:13;;;;;;;12.68;5.88;;;3.90;90.90;;;;;;4913389;29;20060;-65
2021/04/23 00:33:39;;;;;;;12.95;6.22;;;3.90;90.90;;;;;;4914407;29;20035;-64
2021/04/23 00:36:06;;;;;;;14.32;5.82;;;3.80;90.90;;;;;;4913892;29;20874;-65
2021/04/23 00:38:32;;;;;;;8.43;5.95;;;3.80;91.00;;;;;;4913553;29;20465;-64
2021/04/23 00:41:03;;;;;;;11.43;6.50;;;3.70;91.10;;;;;;4914242;29;20539;-65
2021/04/23 00:43:31;;;;;;;12.55;6.45;;;3.70;91.20;;;;;;4913567;29;20027;-64
2021/04/23 00:45:58;;;;;;;14.98;6.32;;;3.70;91.20;;;;;;4913127;29;20047;-65
2021/04/23 00:48:25;;;;;;;11.32;5.43;;;3.70;91.30;;;;;;4913408;29;20087;-67
2021/04/23 00:50:54;;;;;;;15.98;6.03;;;3.60;91.30;;;;;;4913545;29;20036;-66
2021/04/23 00:53:25;;;;;;;15.82;6.28;;;3.60;91.40;;;;;;4912896;29;20456;-64
2021/04/23 00:55:53;;;;;;;11.88;5.10;;;3.60;91.40;;;;;;4914182;29;20118;-65
2021/04/23 00:58:23;;;;;;;12.48;5.53;;;3.60;91.50;;;;;;4913744;29;20029;-65
2021/04/23 01:00:55;;;;;;;15.07;5.50;;;3.60;91.50;;;;;;4914063;29;20358;-66
2021/04/23 01:03:22;;;;;;;;;;;3.50;91.60;;;;;;4914725;29;20037;-67
2021/04/23 01:05:49;;;;;;;14.25;5.50;;;3.60;91.70;;;;;;4913267;29;19919;-65
2021/04/23 01:08:15;;;;;;;11.13;5.32;;;3.50;91.50;;;;;;4914359;29;20028;-65
2021/04/23 01:10:41;;;;;;;14.55;5.32;;;3.50;91.60;;;;;;4912720;29;20035;-67
2021/04/23 01:13:07;;;;;;;14.00;5.40;;;3.50;91.70;;;;;;4916850;29;20028;-65
2021/04/23 01:15:33;;;;;;;10.63;5.07;;;3.50;91.80;;;;;;4917733;29;20507;-64
2021/04/23 01:17:59;;;;;;;12.60;4.93;;;3.40;91.80;;;;;;4916859;29;20033;-64
2021/04/23 01:20:25;;;;;;;11.23;5.47;;;3.40;91.90;;;;;;4917519;29;20477;-65
2021/04/23 01:22:51;;;;;;;12.70;5.35;;;3.40;91.90;;;;;;4917162;29;20028;-65
2021/04/23 01:25:18;;;;;;;12.57;5.30;;;3.30;91.90;;;;;;4916989;29;20135;-65
2021/04/23 01:27:44;;;;;;;10.73;5.20;;;3.30;91.90;;;;;;4916875;29;20020;-65
2021/04/23 01:30:14;;;;;;;14.27;4.80;;;3.30;92.00;;;;;;4917497;29;20032;-65
2021/04/23 01:32:41;;;;;;;8.15;4.95;;;3.30;92.00;;;;;;4916661;29;20024;-65
2021/04/23 01:35:11;;;;;;;11.88;5.35;;;3.20;92.00;;;;;;4917018;29;20027;-64
2021/04/23 01:37:36;;;;;;;10.15;5.43;;;3.20;92.10;;;;;;4916055;29;20580;-66
2021/04/23 01:40:04;;;;;;;10.98;5.35;;;3.20;92.10;;;;;;4915115;29;20103;-66
2021/04/23 01:42:30;;;;;;;13.02;5.22;;;3.20;92.20;;;;;;4915737;29;20031;-66
2021/04/23 01:44:57;;;;;;;12.23;4.85;;;3.20;92.20;;;;;;4916766;29;20028;-65
2021/04/23 01:47:25;;;;;;;15.93;5.15;;;3.20;92.30;;;;;;4916519;29;20039;-65
2021/04/23 01:49:51;;;;;;;13.65;5.82;;;3.10;92.30;;;;;;4916864;29;20477;-67
2021/04/23 01:52:18;;;;;;;11.07;4.85;;;3.10;92.30;;;;;;4915718;29;20071;-65
2021/04/23 01:54:46;;;;;;;11.60;5.50;;;3.00;92.30;;;;;;4915961;29;20393;-65
2021/04/23 01:57:12;;;;;;;10.55;4.63;;;3.00;92.30;;;;;;4916938;29;20040;-66
2021/04/23 01:59:40;;;;;;;11.93;5.03;;;3.00;92.30;;;;;;4915645;29;20020;-66
2021/04/23 02:02:07;;;;;;;7.95;5.40;;;3.00;92.40;;;;;;4916284;29;20024;-65
2021/04/23 02:04:33;;;;;;;11.85;4.75;;;3.00;92.40;;;;;;4916642;29;20472;-67
2021/04/23 02:06:59;;;;;;;16.30;5.15;;;2.90;92.40;;;;;;4916455;29;20028;-67
2021/04/23 02:09:25;;;;;;;15.23;5.40;;;2.90;92.40;;;;;;4916033;29;20020;-65
2021/04/23 02:11:52;;;;;;;9.43;4.45;;;2.90;92.50;;;;;;4916279;29;20036;-66
2021/04/23 02:14:19;;;;;;;11.07;4.57;;;2.90;92.50;;;;;;4916039;29;20024;-67
2021/04/23 02:16:45;;;;;;;12.75;5.13;;;2.90;92.50;;;;;;4916146;29;20028;-65
2021/04/23 02:19:13;;;;;;;11.15;4.82;;;2.90;92.50;;;;;;4916549;29;20167;-66
2021/04/23 02:21:42;;;;;;;10.00;5.28;;;2.90;92.50;;;;;;4915772;29;20032;-68
2021/04/23 02:24:08;;;;;;;15.65;5.95;;;2.90;92.60;;;;;;4916153;29;20440;-66
2021/04/23 02:26:37;;;;;;;7.68;5.00;;;2.90;92.60;;;;;;4916125;29;20132;-67
2021/04/23 02:29:06;;;;;;;9.63;5.50;;;2.90;92.60;;;;;;4915600;29;20028;-67
2021/04/23 02:31:32;;;;;;;10.63;5.28;;;2.80;92.60;;;;;;4915046;29;20028;-66
2021/04/23 02:34:00;;;;;;;9.43;4.93;;;2.80;92.60;;;;;;4915887;29;20350;-66
2021/04/23 02:36:27;;;;;;;6.93;5.00;;;2.80;92.90;;;;;;4915612;29;20028;-66
2021/04/23 02:38:53;;;;;;;13.25;5.55;;;2.80;92.70;;;;;;4915716;29;20107;-67
2021/04/23 02:41:19;;;;;;;10.13;4.38;;;2.70;92.70;;;;;;4914956;29;20028;-66
2021/04/23 02:43:54;;;;;;;10.68;4.65;;;2.70;92.70;;;;;;4915028;29;20072;-65
2021/04/23 02:46:22;;;;;;;12.63;5.15;;;2.70;92.70;;;;;;4916039;29;20119;-66
2021/04/23 02:48:48;;;;;;;9.93;4.72;;;2.70;92.80;;;;;;4915656;29;20028;-67
2021/04/23 02:51:17;;;;;;;7.88;4.55;;;2.60;92.70;;;;;;4914094;29;20028;-66
2021/04/23 02:53:44;;;;;;;9.70;4.63;;;2.60;92.80;;;;;;4915475;29;20110;-66
2021/04/23 02:56:11;;;;;;;8.82;4.30;;;2.60;92.80;;;;;;4915959;29;20036;-65
2021/04/23 02:58:37;;;;;;;12.65;5.18;;;2.60;92.80;;;;;;4914029;29;20473;-67
2021/04/23 03:01:11;;;;;;;8.68;4.60;;;2.60;93.00;;;;;;4915285;29;20038;-68
2021/04/23 03:03:39;;;;;;;11.82;5.22;;;2.50;92.80;;;;;;4915037;29;20020;-65
2021/04/23 03:06:05;;;;;;;15.80;5.35;;;2.50;92.80;;;;;;4915350;29;20036;-65
2021/04/23 03:08:30;;;;;;;13.05;5.30;;;2.50;92.80;;;;;;4915261;29;20066;-65
2021/04/23 03:11:17;;;;;;;7.70;4.30;;;2.50;92.90;;;;;;4914768;29;20032;-65
2021/04/23 03:13:47;;;;;;;8.73;4.20;;;2.50;92.90;;;;;;4915362;29;20099;-64
2021/04/23 03:16:13;;;;;;;12.88;4.63;;;2.50;92.90;;;;;;4915604;29;20032;-65
2021/04/23 03:18:40;;;;;;;10.85;5.13;;;2.50;93.00;;;;;;4914763;29;20056;-65
2021/04/23 03:21:08;;;;;;;16.83;5.47;;;2.50;93.10;;;;;;4915074;29;20036;-65
2021/04/23 03:23:35;;;;;;;13.23;4.85;;;2.50;93.20;;;;;;4914160;29;20028;-65
2021/04/23 03:26:05;;;;;;;8.68;4.57;;;2.50;93.40;;;;;;4914495;29;20454;-65
2021/04/23 03:28:31;;;;;;;11.02;4.93;;;2.60;93.40;;;;;;4915230;29;20020;-64
2021/04/23 03:30:57;;;;;;;15.77;5.72;;;2.60;93.30;;;;;;4915019;29;20034;-65
2021/04/23 03:33:23;;;;;;;7.72;4.68;;;2.50;93.60;;;;;;4913086;29;20115;-66
2021/04/23 03:35:51;;;;;;;8.23;5.15;;;2.60;93.40;;;;;;4914454;29;20074;-65
2021/04/23 03:38:18;;;;;;;11.10;5.22;;;2.50;93.40;;;;;;4913897;29;20024;-64
2021/04/23 03:40:45;;;;;;;10.75;5.25;;;2.50;93.40;;;;;;4913072;29;20048;-64
2021/04/23 03:43:10;;;;;;;13.15;5.32;;;2.60;93.50;;;;;;4915102;29;20429;-64
2021/04/23 03:45:37;;;;;;;13.73;4.80;;;2.50;93.40;;;;;;4913707;29;20096;-66
2021/04/23 03:48:04;;;;;;;9.13;5.10;;;2.50;93.50;;;;;;4914441;29;20552;-65
2021/04/23 03:50:31;;;;;;;8.50;5.43;;;2.50;93.50;;;;;;4914736;29;20066;-64
2021/04/23 03:53:00;;;;;;;15.32;5.78;;;2.50;93.50;;;;;;4913940;29;20099;-65
2021/04/23 03:55:30;;;;;;;10.63;5.72;;;2.50;93.50;;;;;;4914800;29;20492;-65
2021/04/23 03:57:57;;;;;;;16.10;6.00;;;2.50;93.50;;;;;;4913355;29;20020;-65
2021/04/23 04:00:32;;;;;;;10.73;5.53;;;2.50;93.40;;;;;;4913078;29;20024;-64
2021/04/23 04:02:57;;;;;;;11.68;6.38;;;2.50;93.40;;;;;;4914569;29;20099;-65
2021/04/23 04:05:23;;;;;;;12.40;5.82;;;2.40;93.50;;;;;;4914736;29;20807;-66
2021/04/23 04:07:49;;;;;;;18.23;6.82;;;2.40;93.50;;;;;;4912698;29;20028;-65
2021/04/23 04:10:16;;;;;;;17.65;7.20;;;2.40;93.50;;;;;;4914656;29;20048;-64
2021/04/23 04:12:42;;;;;;;10.55;6.22;;;2.50;93.60;;;;;;4914450;29;20032;-64
2021/04/23 04:15:08;;;;;;;16.20;6.93;;;2.50;93.60;;;;;;4913917;29;20079;-64
2021/04/23 04:17:34;;;;;;;14.48;6.38;;;2.50;93.60;;;;;;4913320;29;20133;-65
2021/04/23 04:20:00;;;;;;;15.25;7.22;;;2.60;93.60;;;;;;4914383;29;20028;-65
2021/04/23 04:22:26;;;;;;;14.98;6.47;;;2.70;93.70;;;;;;4913851;29;20069;-64
2021/04/23 04:24:52;;;;;;;12.52;6.28;;;2.80;93.70;;;;;;4914247;29;20024;-66
2021/04/23 04:27:17;;;;;;;13.38;6.63;;;2.90;93.70;;;;;;4913571;29;20042;-67
2021/04/23 04:29:44;;;;;;;19.77;7.10;;;3.10;93.70;;;;;;4914164;29;20084;-66
2021/04/23 04:32:10;;;;;;;15.00;6.75;;;3.20;93.60;;;;;;4914670;29;20171;-66
2021/04/23 04:34:36;;;;;;;19.45;8.98;;;3.30;93.60;;;;;;4914436;29;20525;-66
2021/04/23 04:37:01;;;;;;;18.55;8.65;;;3.40;93.60;;;;;;4913630;29;20390;-65
2021/04/23 04:39:27;;;;;;;19.58;7.80;;;3.40;93.60;;;;;;4914452;29;20495;-66
2021/04/23 04:41:52;;;;;;;12.65;7.28;;;3.50;93.70;;;;;;4914040;29;20389;-66
2021/04/23 04:44:18;;;;;;;15.07;6.93;;;3.60;93.70;;;;;;4914058;29;20036;-67
2021/04/23 04:46:43;;;;;;;17.55;7.40;;;3.70;93.70;;;;;;4915712;29;20040;-65
2021/04/23 04:49:09;;;;;;;16.73;9.20;;;3.70;93.70;;;;;;4916123;29;20484;-65
2021/04/23 04:51:35;;;;;;;11.93;7.03;;;3.80;93.60;;;;;;4917993;29;20529;-65
2021/04/23 04:54:00;;;;;;;15.38;7.63;;;3.90;93.60;;;;;;4917469;29;20131;-65
2021/04/23 04:56:26;;;;;;;14.88;7.78;;;4.00;93.50;;;;;;4917394;29;20507;-64
2021/04/23 04:58:51;;;;;;;14.90;7.28;;;4.10;93.50;;;;;;4917612;29;20024;-64
2021/04/23 05:01:17;;;;;;;14.30;7.43;;;4.20;93.50;;;;;;4918081;29;20076;-64
2021/04/23 05:03:44;;;;;;;15.63;7.82;;;4.30;93.40;;;;;;4917087;29;20020;-65
2021/04/23 05:06:11;;;;;;;13.48;7.45;;;4.40;93.40;;;;;;4916438;29;20044;-65
2021/04/23 05:08:36;;;;;;;19.30;8.23;;;4.50;93.30;;;;;;4917776;29;20079;-64
2021/04/23 05:11:02;;;;;;;12.48;7.50;;;4.60;93.20;;;;;;4916866;29;20032;-64
2021/04/23 05:13:28;;;;;;;17.20;6.72;;;4.70;93.20;;;;;;4917519;29;20020;-65
2021/04/23 05:15:54;;;;;;;18.63;7.40;;;4.80;93.10;;;;;;4917081;29;20484;-65
2021/04/23 05:18:19;;;;;;;19.05;7.13;;;4.90;93.00;;;;;;4916419;29;20052;-65
2021/04/23 05:20:45;;;;;;;14.05;7.43;;;5.00;92.90;;;;;;4916830;29;20036;-64
2021/04/23 05:23:10;;;;;;;14.02;7.15;;;5.10;92.80;;;;;;4917614;29;20035;-64
2021/04/23 05:25:36;;;;;;;16.90;7.97;;;5.20;92.70;;;;;;4916761;29;20072;-65
2021/04/23 05:28:04;;;;;;;16.55;7.25;;;5.30;92.60;;;;;;4917105;29;20087;-64
2021/04/23 05:30:32;;;;;;;14.10;7.10;;;5.40;92.50;;;;;;4916091;29;20016;-64
2021/04/23 05:33:01;;;;;;;16.13;7.28;;;5.40;92.40;;;;;;4916264;29;20072;-65
2021/04/23 05:35:28;;;;;;;12.43;7.32;;;5.50;92.20;;;;;;4916403;29;20032;-64
2021/04/23 05:37:55;;;;;;;20.70;7.97;;;5.50;92.00;;;;;;4916476;29;20490;-65
2021/04/23 05:40:24;;;;;;;13.73;7.30;;;5.60;91.80;;;;;;4916319;29;20024;-65
2021/04/23 05:42:51;;;;;;;15.80;7.15;;;5.70;91.70;;;;;;4916194;29;20050;-65
2021/04/23 05:45:18;;;;;;;18.13;7.13;;;5.80;91.60;;;;;;4914714;29;20032;-64
2021/04/23 05:47:43;;;;;;;17.15;7.47;;;6.00;91.40;;;;;;4916661;29;20060;-65
2021/04/23 05:50:12;;;;;;;13.82;6.88;;;6.10;91.30;;;;;;4916989;29;20083;-65
2021/04/23 05:52:38;;;;;;;14.70;7.57;;;6.20;91.10;;;;;;4916156;29;20482;-65
2021/04/23 05:55:06;;;;;;;16.13;7.22;;;6.30;90.90;;;;;;4916810;29;20083;-64
2021/04/23 05:57:32;;;;;;;13.15;7.60;;;6.30;90.80;;;;;;4914575;29;20039;-65
2021/04/23 05:59:58;;;;;;;15.90;7.57;;;6.40;90.70;;;;;;4915180;29;20469;-64
2021/04/23 06:02:23;;;;;;;19.27;7.10;;;6.50;90.60;;;;;;4916517;29;20497;-66
2021/04/23 06:04:49;;;;;;;16.65;6.43;;;6.50;90.50;;;;;;4916127;29;20017;-66
2021/04/23 06:07:14;;;;;;;18.35;6.38;;;6.70;90.50;;;;;;4915906;29;20186;-65
2021/04/23 06:09:40;;;;;;;16.42;6.55;;;6.80;90.20;;;;;;4916431;29;20024;-65
2021/04/23 06:12:06;;;;;;;12.25;7.22;;;6.90;90.10;;;;;;4916489;29;20024;-65
2021/04/23 06:14:31;;;;;;;14.02;6.55;;;6.90;89.90;;;;;;4915751;29;20024;-65
2021/04/23 06:16:59;;;;;;;17.90;6.57;;;7.10;89.80;;;;;;4916266;29;20028;-66
2021/04/23 06:19:24;;;;;;;14.93;6.38;;;7.10;89.50;;;;;;4916251;29;20112;-65
2021/04/23 06:21:51;;;;;;;13.25;6.80;;;7.20;89.40;;;;;;4915598;29;20984;-65
2021/04/23 06:24:17;;;;;;;15.63;8.45;;;7.30;89.00;;;;;;4916011;29;20024;-64
2021/04/23 06:26:43;;;;;;;11.88;5.82;;;7.40;88.50;;;;;;4915000;29;20445;-65
2021/04/23 06:29:08;;;;;;;12.82;6.00;;;7.50;88.10;;;;;;4915717;29;20099;-65
2021/04/23 06:31:34;;;;;;;11.32;6.15;;;7.60;87.80;;;;;;4915974;29;20039;-65
2021/04/23 06:33:59;;;;;;;15.93;5.90;;;7.70;87.40;;;;;;4915935;29;20024;-66
2021/04/23 06:36:25;;;;;;;12.32;5.88;;;7.90;87.30;;;;;;4915407;29;20032;-65
2021/04/23 06:38:51;;;;;;;12.93;5.00;;;8.00;86.90;;;;;;4915845;29;20469;-67
2021/04/23 06:41:17;;;;;;;14.60;4.70;;;8.10;86.30;;;;;;4914379;29;20028;-67
2021/04/23 06:43:43;;;;;;;12.52;5.13;;;8.20;85.80;;;;;;4907011;29;20056;-65
2021/04/23 06:46:09;;;;;;;14.15;4.78;;;8.30;85.50;;;;;;4912804;29;20115;-66
2021/04/23 06:48:35;;;;;;;13.73;4.90;;;8.40;85.30;;;;;;4915029;29;20024;-66
2021/04/23 06:51:03;;;;;;;14.88;5.32;;;8.50;84.50;;;;;;4914823;29;20118;-64
2021/04/23 06:53:29;;;;;;;15.82;5.40;;;8.60;84.00;;;;;;4915205;29;20047;-66
2021/04/23 06:55:55;;;;;;;15.20;6.15;;;8.80;83.60;;;;;;4913311;29;20020;-65
2021/04/23 06:58:20;;;;;;;14.48;4.57;;;9.00;83.10;;;;;;4915245;29;20465;-66
2021/04/23 07:00:47;;;;;;;14.27;4.50;;;9.10;82.20;;;;;;4913772;29;20028;-64
2021/04/23 07:03:13;;;;;;;17.85;4.63;;;9.30;81.30;;;;;;4914786;29;20537;-65
2021/04/23 07:05:41;;;;;;;10.70;4.07;;;9.30;80.40;;;;;;4914751;29;20099;-64
2021/04/23 07:08:07;;;;;;;7.53;3.50;;;9.40;80.60;;;;;;4914923;29;20056;-64
2021/04/23 07:10:34;;;;;;;11.65;3.50;;;9.60;80.40;;;;;;4913959;29;20029;-68
2021/04/23 07:13:00;;;;;;;12.10;3.70;;;9.70;80.60;;;;;;4913255;29;20036;-67
2021/04/23 07:15:27;;;;;;;8.20;3.72;;;9.90;78.80;;;;;;4914961;29;20028;-66
2021/04/23 07:17:54;;;;;;;11.57;3.90;;;10.00;78.50;;;;;;4913816;29;20024;-68
2021/04/23 07:20:20;;;;;;;9.85;4.20;;;10.10;77.30;;;;;;4914967;29;20107;-70
2021/04/23 07:22:47;;;;;;;12.35;3.97;;;10.10;77.30;;;;;;4913768;29;20362;-69
2021/04/23 07:25:13;;;;;;;16.27;4.07;;;10.10;76.80;;;;;;4913063;29;20046;-70
2021/04/23 07:27:39;;;;;;;13.00;3.80;;;10.10;77.00;;;;;;4914038;29;20492;-72
2021/04/23 07:30:07;;;;;;;12.23;3.38;;;10.00;76.70;;;;;;4913533;29;20123;-70
2021/04/23 07:32:33;;;;;;;8.52;3.25;;;10.00;76.50;;;;;;4913014;29;20036;-70
2021/04/23 07:34:58;;;;;;;12.38;3.38;;;10.10;76.20;;;;;;4913695;29;20021;-70
2021/04/23 07:37:24;;;;;;;9.40;2.80;;;10.20;75.70;;;;;;4913475;29;20028;-70
2021/04/23 07:39:50;;;;;;;8.82;3.22;;;10.20;74.60;;;;;;4913752;29;20032;-69
2021/04/23 07:42:16;;;;;;;10.50;3.00;;;10.30;74.30;;;;;;4914503;29;20432;-67
2021/04/23 07:44:41;;;;;;;10.88;3.10;;;10.40;73.20;;;;;;4914812;29;20047;-68
2021/04/23 07:47:08;;;;;;;9.43;2.80;;;10.40;73.60;;;;;;4912278;29;20036;-68
2021/04/23 07:49:34;;;;;;;9.10;2.70;;;10.40;73.70;;;;;;4914808;29;20028;-67
2021/04/23 07:51:59;;;;;;;7.13;2.25;;;10.40;73.80;;;;;;4913694;29;20118;-67
2021/04/23 07:54:26;;;;;;;8.75;2.60;;;10.40;72.40;;;;;;4913915;29;20053;-68
2021/04/23 07:56:51;;;;;;;10.15;2.80;;;10.50;70.50;;;;;;4914407;29;20135;-67
2021/04/23 07:59:17;;;;;;;9.50;2.42;;;10.60;69.40;;;;;;4894120;29;20433;-68
2021/04/23 08:01:42;;;;;;;7.72;2.10;;;10.60;69.70;;;;;;4909672;29;20033;-68
2021/04/23 08:04:08;;;;;;;8.65;2.63;;;10.80;69.50;;;;;;4912937;29;20024;-68
2021/04/23 08:06:34;;;;;;;12.85;3.00;;;10.80;68.90;;;;;;4912490;29;20489;-67
2021/04/23 08:09:00;;;;;;;11.43;3.17;;;10.90;68.00;;;;;;4914322;29;20032;-67
2021/04/23 08:11:26;;;;;;;8.50;3.13;;;10.90;68.90;;;;;;4914395;29;20063;-66
2021/04/23 08:13:52;;;;;;;10.30;2.80;;;11.00;68.40;;;;;;4911849;29;20454;-67
2021/04/23 08:16:17;;;;;;;6.88;2.70;;;10.80;67.40;;;;;;4912961;29;20034;-65
2021/04/23 08:18:45;;;;;;;8.07;2.20;;;10.60;68.20;;;;;;4913973;29;20611;-67
2021/04/23 08:21:10;;;;;;;6.25;2.15;;;10.50;68.40;;;;;;4916134;29;20081;-66
2021/04/23 08:23:37;;;;;;;10.85;2.75;;;10.50;67.90;;;;;;4916632;29;20500;-66
2021/04/23 08:26:04;;;;;;;9.85;2.20;;;10.60;67.80;;;;;;4917243;29;20078;-66
2021/04/23 08:28:31;;;;;;;10.25;2.47;;;10.50;67.40;;;;;;4916991;29;20384;-68
2021/04/23 08:30:57;;;;;;;11.35;2.70;;;10.60;67.40;;;;;;4916692;29;20400;-65
2021/04/23 08:33:24;;;;;;;10.13;3.33;;;10.70;66.90;;;;;;4918050;29;20047;-68
2021/04/23 08:35:50;;;;;;;7.07;2.55;;;10.90;66.40;;;;;;4917233;29;20029;-66
2021/04/23 08:38:15;;;;;;;8.40;2.60;;;11.10;65.50;;;;;;4918074;29;20031;-66
2021/04/23 08:40:41;;;;;;;8.55;2.50;;;11.20;65.10;;;;;;4918230;29;20020;-66
2021/04/23 08:43:06;;;;;;;9.80;2.50;;;11.20;64.80;;;;;;4917214;29;20084;-67
2021/04/23 08:45:32;;;;;;;7.32;2.10;;;11.00;64.60;;;;;;4916971;29;20477;-67
2021/04/23 08:47:59;;;;;;;6.63;2.13;;;10.80;65.20;;;;;;4917790;29;20068;-67
2021/04/23 08:50:25;;;;;;;9.25;2.53;;;10.70;66.30;;;;;;4917357;29;20052;-68
2021/04/23 08:52:53;;;;;;;6.15;2.10;;;10.70;66.70;;;;;;4916142;29;20021;-66
2021/04/23 08:55:24;;;;;;;6.53;2.20;;;11.00;66.50;;;;;;4917476;29;20028;-66
2021/04/23 08:57:50;;;;;;;7.85;2.35;;;11.30;65.00;;;;;;4917751;29;20503;-66
2021/04/23 09:00:17;;;;;;;9.50;2.58;;;11.50;64.30;;;;;;4917780;29;20033;-66
2021/04/23 09:02:44;;;;;;;7.53;2.35;;;11.60;63.10;;;;;;4917104;29;20032;-66
2021/04/23 09:05:11;;;;;;;9.18;2.70;;;11.50;63.30;;;;;;4916645;29;20028;-66
2021/04/23 09:07:37;;;;;;;10.48;2.72;;;11.30;63.70;;;;;;4916381;29;20118;-66
2021/04/23 09:10:19;;;;;;;8.68;2.80;;;11.20;64.30;;;;;;4916826;29;20147;-66
2021/04/23 09:13:02;;;;;;;5.15;2.40;;;11.10;64.40;;;;;;4917415;29;20036;-66
2021/04/23 09:15:27;;;;;;;9.20;3.22;;;11.10;64.80;;;;;;4916458;29;20071;-67
2021/04/23 09:18:16;;;;;;;7.47;2.60;;;11.20;64.30;;;;;;4916883;29;20063;-67
2021/04/23 09:20:47;;;;;;;7.57;2.58;;;11.00;63.80;;;;;;4917372;29;20062;-66
2021/04/23 09:23:16;;;;;;;9.48;3.63;;;10.90;65.00;;;;;;4916142;29;20331;-65
2021/04/23 09:25:55;;;;;;;13.18;3.45;;;10.70;63.80;;;;;;4917323;29;20067;-65
2021/04/23 09:28:32;;;;;;;7.28;2.60;;;10.50;64.60;;;;;;4917593;29;20047;-65
2021/04/23 09:30:58;;;;;;;9.75;2.67;;;10.30;65.70;;;;;;4915238;29;20119;-66
2021/04/23 09:33:26;;;;;;;10.20;3.00;;;10.40;66.20;;;;;;4916317;29;20107;-66
2021/04/23 09:35:52;;;;;;;9.52;2.75;;;10.40;65.70;;;;;;4916062;29;20392;-65
2021/04/23 09:38:17;;;;;;;9.25;2.65;;;10.40;65.50;;;;;;4916790;29;20056;-68
2021/04/23 09:40:45;;;;;;;9.30;2.88;;;10.40;66.20;;;;;;4917168;29;20066;-67
2021/04/23 09:43:11;;;;;;;8.65;2.60;;;10.50;65.50;;;;;;4917130;29;20024;-66
2021/04/23 09:45:51;;;;;;;6.35;2.40;;;10.60;65.50;;;;;;4916053;29;20032;-65
2021/04/23 09:48:19;;;;;;;7.13;2.50;;;10.70;65.60;;;;;;4917179;29;20055;-66
2021/04/23 09:50:44;;;;;;;10.20;3.53;;;10.90;64.80;;;;;;4916552;29;20104;-66
2021/04/23 09:53:10;;;;;;;10.38;2.90;;;11.10;64.70;;;;;;4916446;29;20131;-67
2021/04/23 09:55:36;;;;;;;9.07;3.33;;;11.20;64.60;;;;;;4916925;29;20095;-68
2021/04/23 09:58:04;;;;;;;8.18;2.75;;;11.20;63.50;;;;;;4915075;29;20500;-67
2021/04/23 10:00:35;;;;;;;8.15;3.05;;;11.00;63.30;;;;;;4916213;29;20024;-66
2021/04/23 10:03:03;;;;;;;8.25;2.70;;;10.90;63.40;;;;;;4915265;29;20032;-66
2021/04/23 10:05:29;;;;;;;8.68;2.90;;;10.80;63.40;;;;;;4916008;29;20043;-69
2021/04/23 10:07:54;;;;;;;7.80;2.40;;;10.80;64.10;;;;;;4916333;29;20028;-67
2021/04/23 10:10:20;;;;;;;8.73;3.25;;;10.90;64.20;;;;;;4916739;29;20032;-65
2021/04/23 10:12:57;;;;;;;6.90;2.90;;;10.90;63.40;;;;;;4915222;29;20457;-66
2021/04/23 10:15:25;;;;;;;11.90;4.55;;;11.00;63.70;;;;;;4916583;29;20063;-65
2021/04/23 10:17:54;;;;;;;9.98;3.10;;;11.00;64.00;;;;;;4914886;29;20036;-64
2021/04/23 10:20:43;;;;;;;9.35;3.45;;;11.10;64.50;;;;;;4916009;29;20016;-67
2021/04/23 10:23:12;;;;;;;5.60;2.42;;;11.30;64.50;;;;;;4908036;29;20024;-71
2021/04/23 10:25:38;;;;;;;7.95;3.30;;;11.30;62.80;;;;;;4914169;29;20044;-68
2021/04/23 10:28:09;;;;;;;8.25;2.97;;;11.30;62.40;;;;;;4914919;29;20032;-72
2021/04/23 10:30:37;;;;;;;6.40;2.60;;;11.40;62.80;;;;;;4914549;29;20024;-70
2021/04/23 10:33:06;;;;;;;6.57;2.60;;;11.50;62.00;;;;;;4915150;29;20040;-71
2021/04/23 10:35:32;;;;;;;9.02;3.13;;;11.60;61.40;;;;;;4915032;29;20056;-70
2021/04/23 10:38:03;;;;;;;8.65;3.08;;;11.60;60.30;;;;;;4915085;29;20031;-68
2021/04/23 10:40:30;;;;;;;10.70;2.90;;;11.70;60.20;;;;;;4915707;29;20032;-70
2021/04/23 10:43:18;;;;;;;7.50;2.67;;;11.60;59.50;;;;;;4914186;29;20473;-70
2021/04/23 10:45:58;;;;;;;7.28;2.80;;;11.60;59.90;;;;;;4915456;29;20320;-67
2021/04/23 10:48:34;;;;;;;7.93;2.63;;;11.60;60.00;;;;;;4912767;29;20055;-68
2021/04/23 10:51:11;;;;;;;5.97;3.00;;;11.60;60.80;;;;;;4913721;29;20035;-67
2021/04/23 10:53:45;;;;;;;9.20;2.67;;;11.80;60.30;;;;;;4915457;29;20100;-71
2021/04/23 10:56:33;;;;;;;7.35;2.90;;;11.90;60.20;;;;;;4914997;29;20028;-71
2021/04/23 10:59:21;;;;;;;6.40;2.53;;;12.00;59.80;;;;;;4915225;29;20032;-70
2021/04/23 11:01:49;;;;;;;7.78;2.47;;;12.10;59.50;;;;;;4914452;29;20024;-70
2021/04/23 11:04:16;;;;;;;9.82;3.05;;;12.10;59.70;;;;;;4914913;29;20148;-69
2021/04/23 11:06:50;;;;;;;8.85;2.97;;;12.20;59.10;;;;;;4914783;29;20511;-70
2021/04/23 11:09:21;;;;;;;6.97;2.83;;;12.40;59.40;;;;;;4914489;29;20107;-71
2021/04/23 11:12:14;;;;;;;8.77;2.60;;;12.60;59.70;;;;;;4914796;29;20370;-70
2021/04/23 11:14:42;;;;;;;7.13;2.65;;;12.90;58.70;;;;;;4913688;29;20036;-69
2021/04/23 11:17:17;;;;;;;9.70;2.47;;;13.00;57.80;;;;;;4913055;29;20022;-70
2021/04/23 11:19:47;;;;;;;8.38;2.40;;;13.10;57.00;;;;;;4914624;29;20040;-70
2021/04/23 11:22:27;;;;;;;7.07;3.05;;;13.20;55.90;;;;;;4913944;29;20028;-69
2021/04/23 11:25:03;;;;;;;9.55;2.58;;;13.30;54.70;;;;;;4913844;29;20067;-72
2021/04/23 11:27:29;;;;;;;7.88;2.40;;;13.30;54.00;;;;;;4915110;29;20040;-70
2021/04/23 11:29:54;;;;;;;7.18;2.78;;;13.30;54.40;;;;;;4912366;29;20536;-69
2021/04/23 11:32:22;;;;;;;6.60;2.22;;;13.30;54.20;;;;;;4912957;29;20051;-69
2021/04/23 11:35:10;;;;;;;6.53;2.72;;;13.30;53.90;;;;;;4913910;29;20071;-65
2021/04/23 11:37:41;;;;;;;7.00;2.92;;;13.40;52.60;;;;;;4911343;29;20036;-67
2021/04/23 11:40:13;;;;;;;6.15;2.50;;;13.40;53.40;;;;;;4913603;29;20027;-67
2021/04/23 11:42:40;;;;;;;;;;;13.50;52.70;;;;;;4914411;29;20028;-69
2021/04/23 11:45:09;;;;;;;5.75;2.38;;;13.50;52.90;;;;;;4912115;29;19963;-67
2021/04/23 11:47:46;;;;;;;5.03;2.63;;;13.40;52.60;;;;;;4914465;29;20099;-73
2021/04/23 11:50:29;;;;;;;4.85;2.90;;;13.40;53.20;;;;;;4911616;29;20028;-69
2021/04/23 11:53:03;;;;;;;11.10;2.95;;;13.50;52.20;;;;;;4913023;29;20024;-71
2021/04/23 11:55:31;;;;;;;7.85;2.75;;;13.70;52.30;;;;;;4912255;29;20020;-73
2021/04/23 11:58:10;;;;;;;8.48;3.10;;;13.80;52.20;;;;;;4913359;29;20028;-70
2021/04/23 12:00:37;;;;;;;5.78;2.35;;;14.00;51.30;;;;;;4913730;29;20074;-69
2021/04/23 12:03:07;;;;;;;8.15;3.40;;;14.20;51.60;;;;;;4913836;29;20028;-68
2021/04/23 12:05:48;;;;;;;8.88;2.47;;;14.50;50.40;;;;;;4912219;29;20438;-69
2021/04/23 12:08:16;;;;;;;8.50;2.60;;;14.60;50.90;;;;;;4913799;29;20481;-68
2021/04/23 12:10:50;;;;;;;10.32;3.03;;;14.70;49.80;;;;;;4913747;29;20100;-68
2021/04/23 12:13:17;;;;;;;5.22;2.70;;;14.60;49.90;;;;;;4913303;29;20131;-69
2021/04/23 12:15:45;;;;;;;7.03;2.67;;;14.50;49.60;;;;;;4913525;29;20028;-69
2021/04/23 12:18:12;;;;;;;7.55;2.53;;;14.40;50.00;;;;;;4913280;29;20034;-67
2021/04/23 12:20:41;;;;;;;8.70;3.00;;;14.50;50.10;;;;;;4913304;29;20115;-70
2021/04/23 12:23:16;;;;;;;5.95;2.58;;;14.60;48.50;;;;;;4911684;29;20051;-69
2021/04/23 12:25:52;;;;;;;5.30;2.85;;;14.70;48.70;;;;;;4913446;29;20041;-69
2021/04/23 12:28:34;;;;;;;6.43;2.42;;;14.90;48.60;;;;;;4913675;29;20425;-70
2021/04/23 12:31:04;;;;;;;9.32;2.92;;;15.10;48.60;;;;;;4911788;29;20035;-66
2021/04/23 12:33:51;;;;;;;11.38;2.70;;;15.30;50.30;;;;;;4912145;29;20028;-68
2021/04/23 12:36:22;;;;;;;6.75;2.80;;;15.60;52.50;;;;;;4910458;29;20107;-68
2021/04/23 12:38:52;;;;;;;5.93;2.60;;;15.60;52.00;;;;;;4912376;29;20062;-69
2021/04/23 12:41:21;;;;;;;8.57;3.45;;;15.60;51.50;;;;;;4912971;29;20024;-68
2021/04/23 12:43:48;;;;;;;8.18;3.13;;;15.30;52.30;;;;;;4913359;29;20024;-68
2021/04/23 12:46:28;;;;;;;10.45;2.97;;;15.00;52.80;;;;;;4913195;29;20449;-68
2021/04/23 12:49:03;;;;;;;8.15;3.10;;;15.00;53.90;;;;;;4912709;29;20115;-65
2021/04/23 12:51:29;;;;;;;7.63;2.85;;;15.10;54.90;;;;;;4913987;29;20474;-65
2021/04/23 12:53:55;;;;;;;7.53;2.92;;;15.20;54.40;;;;;;4913432;29;20083;-66